Time;durP1;ratioP1;P1;durP2;ratioP2;P2;SDS_P1;SDS_P2;PMS_P1;PMS_P2;Temp;Humidity;BMP_temperature;BMP_pressure;BME280_temperature;BME280_humidity;BME280_pressure;Samples;Min_cycle;Max_cycle;Signal;HPM_P1;HPM_P2
2022/02/08 00:00:15;;;;;;;18.30;15.43;;;;;;;2.34;85.86;99263.89;1627541;85;21064;-68
2022/02/08 00:02:47;;;;;;;18.70;15.03;;;;;;;2.17;86.36;99247.75;1618895;87;21028;-68
2022/02/08 00:05:13;;;;;;;17.80;14.23;;;;;;;2.16;86.85;99266.31;1598663;87;21040;-79
2022/02/08 00:07:38;;;;;;;16.20;11.67;;;;;;;2.19;86.96;99267.31;1606877;87;21078;-67
2022/02/08 00:10:06;;;;;;;15.53;12.58;;;;;;;2.27;87.06;99270.77;1605486;87;21048;-68
2022/02/08 00:12:34;;;;;;;18.87;12.43;;;;;;;2.31;86.88;99275.22;1617981;86;21040;-70
2022/02/08 00:15:00;;;;;;;14.33;11.85;;;;;;;2.32;86.62;99279.01;1632880;86;21041;-70
2022/02/08 00:17:26;;;;;;;12.70;10.45;;;;;;;2.30;86.77;99278.84;1628134;86;21642;-74
2022/02/08 00:19:52;;;;;;;12.47;11.10;;;;;;;2.23;86.83;99283.91;1643987;86;20999;-68
2022/02/08 00:22:19;;;;;;;13.65;10.75;;;;;;;2.18;87.05;99293.27;1630431;86;21100;-71
2022/02/08 00:24:45;;;;;;;13.55;9.40;;;;;;;2.18;86.97;99290.13;1632455;86;21049;-71
2022/02/08 00:27:11;;;;;;;9.20;7.22;;;;;;;2.25;86.89;99303.48;1640540;86;21256;-72
2022/02/08 00:29:37;;;;;;;7.55;6.28;;;;;;;2.20;86.67;99288.66;1628423;86;21079;-68
2022/02/08 00:32:06;;;;;;;6.40;5.80;;;;;;;2.25;86.46;99303.48;1624493;86;21061;-69
2022/02/08 00:34:32;;;;;;;4.13;3.77;;;;;;;2.14;86.37;99304.09;1633865;86;21021;-68
2022/02/08 00:39:45;;;;;;;2.73;2.53;;;;;;;2.00;86.09;99317.85;1813850;77;22771;-69
2022/02/08 00:42:12;;;;;;;2.22;1.75;;;;;;;1.97;85.66;99316.03;1798015;78;21563;-69
2022/02/08 00:44:56;;;;;;;2.23;2.03;;;;;;;1.96;85.68;99325.72;1766740;78;21105;-69
2022/02/08 00:47:23;;;;;;;2.80;2.07;;;;;;;1.95;85.63;99320.13;1716230;81;21028;-68
2022/02/08 00:49:44;;;;;;;1.77;1.57;;;;;;;1.96;85.56;99325.72;1735856;81;21007;-68
2022/02/08 00:52:16;;;;;;;1.37;1.20;;;;;;;1.97;85.71;99322.09;1736101;81;21077;-71
2022/02/08 00:54:46;;;;;;;3.10;2.10;;;;;;;1.94;85.43;99323.25;1738085;81;20998;-68
2022/02/08 00:57:14;;;;;;;2.23;1.07;;;;;;;1.90;85.27;99319.30;1756107;80;21101;-69
2022/02/08 00:59:41;;;;;;;0.97;0.97;;;;;;;1.98;85.22;99325.55;1750943;80;21068;-67
2022/02/08 01:02:10;;;;;;;1.10;0.97;;;;;;;2.03;84.64;99328.03;1744474;80;21434;-70
2022/02/08 01:04:37;;;;;;;2.93;1.43;;;;;;;2.02;84.46;99334.28;1733467;81;21787;-68
2022/02/08 01:07:07;;;;;;;2.83;1.30;;;;;;;1.94;84.68;99332.91;1734564;81;21533;-69
2022/02/08 01:10:22;;;;;;;2.20;1.57;;;;;;;1.92;84.95;99334.88;1737333;81;20998;-70
2022/02/08 01:12:05;;;;;;;1.27;1.17;;;;;;;1.95;84.91;99334.58;1736980;81;21041;-67
2022/02/08 01:14:37;;;;;;;1.60;1.30;;;;;;;1.95;84.49;99338.02;1740986;81;21093;-68
2022/02/08 01:16:59;;;;;;;1.27;1.03;;;;;;;1.93;83.94;99343.92;1735354;81;20994;-68
2022/02/08 01:19:25;;;;;;;0.72;0.62;;;;;;;1.89;83.78;99347.04;1741841;81;20985;-69
2022/02/08 01:21:52;;;;;;;1.87;1.00;;;;;;;1.86;83.78;99348.66;1734545;81;21014;-72
2022/02/08 01:24:18;;;;;;;1.65;0.95;;;;;;;1.82;84.04;99357.34;1697640;83;21024;-70
2022/02/08 01:26:54;;;;;;;0.95;0.90;;;;;;;1.77;84.19;99360.09;1674631;84;21048;-68
2022/02/08 01:29:25;;;;;;;1.13;0.73;;;;;;;1.72;84.32;99370.59;1677401;84;21119;-70
2022/02/08 01:31:47;;;;;;;1.07;0.97;;;;;;;1.71;84.31;99367.64;1697288;83;21027;-68
2022/02/08 01:34:30;;;;;;;1.33;0.60;;;;;;;1.76;84.11;99371.10;1697138;83;21586;-72
2022/02/08 01:37:05;;;;;;;2.45;0.82;;;;;;;1.78;83.38;99374.89;1696233;83;21079;-67
2022/02/08 01:39:25;;;;;;;0.97;0.70;;;;;;;1.79;83.34;99376.06;1673057;83;21088;-66
2022/02/08 01:43:18;;;;;;;1.00;0.70;;;;;;;1.77;83.49;99375.86;1668969;84;21096;-67
2022/02/08 01:44:39;;;;;;;3.37;0.93;;;;;;;1.70;83.44;99379.11;1664994;84;21570;-67
2022/02/08 01:47:08;;;;;;;0.83;0.40;;;;;;;1.70;83.57;99385.69;1669434;84;21131;-68
2022/02/08 01:49:35;;;;;;;1.30;0.90;;;;;;;1.72;83.51;99382.41;1691942;84;21114;-70
2022/02/08 01:52:03;;;;;;;2.70;1.00;;;;;;;1.75;83.09;99388.68;1679765;84;21102;-67
2022/02/08 01:54:30;;;;;;;1.00;0.90;;;;;;;1.82;83.00;99386.73;1641959;86;21102;-68
2022/02/08 01:56:56;;;;;;;0.97;0.73;;;;;;;1.84;82.51;99382.97;1669856;84;21013;-67
2022/02/08 01:59:24;;;;;;;1.57;0.70;;;;;;;1.83;82.57;99387.91;1670824;84;21059;-66
2022/02/08 02:01:51;;;;;;;4.37;1.30;;;;;;;1.78;82.53;99394.60;1659960;85;21132;-67
2022/02/08 02:04:19;;;;;;;1.20;0.83;;;;;;;1.74;82.80;99392.27;1676396;84;21553;-69
2022/02/08 02:06:47;;;;;;;1.60;0.53;;;;;;;1.76;82.45;99397.38;1661164;85;21244;-68
2022/02/08 02:09:15;;;;;;;1.00;0.93;;;;;;;1.75;82.02;99396.56;1683726;84;21024;-68
2022/02/08 02:11:42;;;;;;;1.90;0.90;;;;;;;1.77;81.95;99400.33;1622007;85;21016;-66
2022/02/08 02:14:08;;;;;;;1.25;1.07;;;;;;;1.75;81.73;99408.85;1636783;85;20998;-68
2022/02/08 02:16:47;;;;;;;1.22;0.65;;;;;;;1.69;81.94;99411.61;1681124;84;21055;-69
2022/02/08 02:19:03;;;;;;;0.80;0.50;;;;;;;1.64;82.20;99411.73;1679490;84;22145;-69
2022/02/08 02:21:31;;;;;;;1.93;0.50;;;;;;;1.65;82.28;99403.70;1647748;85;21055;-69
2022/02/08 02:24:00;;;;;;;1.07;0.62;;;;;;;1.73;81.94;99416.06;1627987;84;21158;-68
2022/02/08 02:26:26;;;;;;;1.10;0.90;;;;;;;1.75;81.87;99417.58;1681984;84;21173;-66
2022/02/08 02:28:53;;;;;;;0.72;0.55;;;;;;;1.73;82.03;99419.54;1667078;84;21036;-69
2022/02/08 02:31:20;;;;;;;0.45;0.45;;;;;;;1.71;82.03;99417.56;1677448;84;21106;-67
2022/02/08 02:33:46;;;;;;;1.63;0.93;;;;;;;1.69;82.00;99416.86;1680804;84;21076;-67
2022/02/08 02:36:13;;;;;;;2.33;0.80;;;;;;;1.70;81.88;99425.09;1687278;84;21012;-68
2022/02/08 02:38:40;;;;;;;2.30;1.10;;;;;;;1.72;81.53;99429.70;1674507;84;21137;-70
2022/02/08 02:41:07;;;;;;;1.37;1.27;;;;;;;1.78;81.45;99436.14;1681177;84;21045;-67
2022/02/08 02:43:33;;;;;;;1.22;0.90;;;;;;;1.75;81.36;99429.87;1674746;84;21101;-67
2022/02/08 02:46:02;;;;;;;0.93;0.80;;;;;;;1.68;81.49;99428.36;1662056;84;21534;-67
2022/02/08 02:48:28;;;;;;;1.53;0.70;;;;;;;1.63;81.58;99439.81;1669575;84;21029;-66
2022/02/08 02:50:56;;;;;;;2.97;1.67;;;;;;;1.71;81.67;99454.81;1675725;84;20991;-69
2022/02/08 02:53:26;;;;;;;2.07;1.20;;;;;;;1.76;81.29;99453.87;1677396;84;21633;-68
2022/02/08 02:55:53;;;;;;;2.07;1.50;;;;;;;1.74;81.43;99456.64;1671928;84;21050;-69
2022/02/08 02:58:24;;;;;;;2.53;1.00;;;;;;;1.69;81.33;99460.70;1700328;83;21050;-67
2022/02/08 03:01:05;;;;;;;1.53;0.90;;;;;;;1.65;81.53;99465.44;1671305;84;21902;-68
2022/02/08 03:03:41;;;;;;;1.37;0.87;;;;;;;1.68;81.41;99465.64;1699714;82;20985;-68
2022/02/08 03:17:28;;;;;;;1.32;0.80;;;;;;;1.74;81.19;99466.34;1673820;83;21125;-68
2022/02/08 03:19:22;;;;;;;1.70;1.20;;;;;;;1.74;80.81;99489.48;1658796;85;20979;-66
2022/02/08 03:21:48;;;;;;;0.88;0.60;;;;;;;1.81;80.59;99491.50;1657016;85;21002;-67
2022/02/08 03:24:14;;;;;;;1.35;0.70;;;;;;;1.85;80.24;99496.31;1645968;85;21043;-66
2022/02/08 03:26:41;;;;;;;1.47;1.35;;;;;;;1.84;79.99;99506.47;1638966;86;21105;-67
2022/02/08 03:29:07;;;;;;;2.02;1.10;;;;;;;1.76;80.05;99507.73;1706377;83;20986;-67
2022/02/08 03:31:35;;;;;;;1.53;0.77;;;;;;;1.69;80.42;99504.87;1693090;83;21556;-66
2022/02/08 03:34:02;;;;;;;2.07;1.20;;;;;;;1.64;80.57;99507.61;1689541;81;22128;-67
2022/02/08 03:36:31;;;;;;;1.93;1.00;;;;;;;1.30;80.22;99450.06;1656130;84;21109;-67
2022/02/08 03:39:11;;;;;;;2.60;1.50;;;;;;;1.70;80.23;99515.73;1651338;84;21625;-68
2022/02/08 03:41:36;;;;;;;1.70;1.43;;;;;;;1.70;80.31;99522.30;1664930;84;20990;-68
2022/02/08 03:43:57;;;;;;;2.43;1.07;;;;;;;1.66;80.36;99525.39;1659043;84;21657;-68
2022/02/08 03:46:29;;;;;;;1.37;1.27;;;;;;;1.61;80.38;99531.08;1671570;84;21560;-68
2022/02/08 03:48:52;;;;;;;1.23;1.03;;;;;;;1.63;80.40;99533.06;1674257;84;21086;-67
2022/02/08 03:51:20;;;;;;;1.12;0.98;;;;;;;1.69;80.54;99543.46;1676614;84;21084;-64
2022/02/08 03:53:48;;;;;;;1.27;1.17;;;;;;;1.74;80.41;99543.34;1668054;84;21055;-67
2022/02/08 03:56:20;;;;;;;2.03;1.20;;;;;;;1.70;80.48;99545.13;1659310;84;21077;-65
2022/02/08 03:58:45;;;;;;;1.27;0.80;;;;;;;1.63;80.68;99551.45;1669408;84;21007;-67
2022/02/08 04:04:16;;;;;;;1.83;1.00;;;;;;;1.69;80.44;99550.84;1671354;84;21010;-67
2022/02/08 04:06:18;;;;;;;1.10;1.00;;;;;;;1.74;80.40;99555.67;1659596;84;21132;-68
2022/02/08 04:08:44;;;;;;;1.70;1.35;;;;;;;1.79;80.44;99567.03;1673561;84;21054;-69
2022/02/08 04:11:10;;;;;;;2.90;1.32;;;;;;;1.78;80.42;99569.33;1668434;84;21616;-64
2022/02/08 04:13:55;;;;;;;1.15;1.00;;;;;;;1.76;80.30;99570.80;1695618;83;21077;-69
2022/02/08 04:16:27;;;;;;;1.10;1.00;;;;;;;1.67;80.31;99566.44;1665694;83;21006;-66
2022/02/08 04:32:39;;;;;;;2.10;1.30;;;;;;;1.64;80.33;99607.44;1692862;83;21057;-65
2022/02/08 04:40:13;;;;;;;1.60;1.50;;;;;;;1.64;80.19;99617.95;1672286;84;21138;-65
2022/02/08 04:42:33;;;;;;;1.50;1.40;;;;;;;1.58;80.33;99624.62;1677469;84;20999;-68
2022/02/08 04:47:30;;;;;;;2.50;1.32;;;;;;;1.64;80.34;99636.34;1630208;86;21578;-69
2022/02/08 04:49:53;;;;;;;2.40;0.90;;;;;;;1.70;80.33;99638.39;1629370;86;21167;-68
2022/02/08 04:52:20;;;;;;;0.83;0.70;;;;;;;1.74;80.22;99640.56;1630173;86;21087;-69
2022/02/08 04:57:45;;;;;;;1.87;1.67;;;;;;;1.79;80.04;99650.65;1682525;84;22212;-68
2022/02/08 05:34:12;;;;;;;2.47;1.70;;;;;;;1.82;79.04;99702.89;1682868;83;20994;-67
2022/02/08 05:35:25;;;;;;;4.77;1.17;;;;;;;1.92;78.94;99712.88;1683199;83;21497;-67
2022/02/08 05:43:37;;;;;;;2.43;1.90;;;;;;;1.85;79.01;99726.75;1692869;82;21107;-74
2022/02/08 05:48:23;;;;;;;3.80;1.67;;;;;;;2.02;78.59;99728.58;1623853;85;22088;-67
2022/02/08 05:50:56;;;;;;;2.40;1.60;;;;;;;2.08;78.32;99731.92;1650697;85;21130;-69
2022/02/08 05:53:29;;;;;;;2.87;1.50;;;;;;;2.10;78.02;99735.72;1647982;85;21129;-71
2022/02/08 05:55:43;;;;;;;2.47;1.70;;;;;;;2.05;78.01;99745.35;1649622;83;21040;-68
2022/02/08 05:58:10;;;;;;;1.90;1.50;;;;;;;1.99;77.94;99747.27;1676637;83;21019;-70
2022/02/08 06:00:39;;;;;;;;;;;;;;;1.98;78.04;99756.60;1679655;83;21014;-68
2022/02/08 06:03:19;;;;;;;2.13;1.87;;;;;;;1.96;77.84;99763.34;1661586;84;20149;-67
2022/02/08 06:05:49;;;;;;;1.87;1.33;;;;;;;1.96;77.77;99765.98;1657388;84;21038;-76
2022/02/08 06:08:16;;;;;;;2.37;1.67;;;;;;;1.99;77.60;99761.72;1663194;84;21154;-68
2022/02/08 06:10:49;;;;;;;1.40;1.27;;;;;;;2.00;77.65;99762.53;1653180;84;21028;-67
2022/02/08 06:13:16;;;;;;;4.03;1.53;;;;;;;1.95;77.55;99765.63;1634186;85;21193;-67
2022/02/08 06:15:45;;;;;;;1.93;1.40;;;;;;;1.93;77.65;99768.39;1670120;84;21598;-69
2022/02/08 06:18:13;;;;;;;1.77;1.37;;;;;;;1.89;77.62;99772.29;1703439;83;21019;-68
2022/02/08 06:20:39;;;;;;;4.17;2.17;;;;;;;1.96;77.51;99765.98;1684695;82;21107;-68
2022/02/08 06:23:06;;;;;;;2.80;0.88;;;;;;;2.04;77.19;99775.26;1700469;81;20965;-69
2022/02/08 06:25:34;;;;;;;1.77;0.98;;;;;;;2.06;77.12;99773.30;1686467;83;20986;-70
2022/02/08 06:28:01;;;;;;;1.73;1.27;;;;;;;2.05;77.08;99778.21;1681306;83;21004;-70
2022/02/08 06:30:27;;;;;;;3.80;2.08;;;;;;;2.04;77.02;99784.46;1689701;83;21057;-65
2022/02/08 06:32:56;;;;;;;2.95;1.87;;;;;;;2.01;76.87;99782.11;1684821;83;21118;-66
2022/02/08 06:35:29;;;;;;;2.77;1.20;;;;;;;1.97;76.57;99791.27;1683012;83;21636;-65
2022/02/08 06:37:52;;;;;;;2.50;0.97;;;;;;;1.99;76.88;99772.23;1682086;83;21093;-67
2022/02/08 06:40:19;;;;;;;3.27;1.50;;;;;;;2.03;76.79;99787.23;1683083;83;21599;-65
2022/02/08 06:42:46;;;;;;;2.47;1.70;;;;;;;2.04;76.58;99789.72;1683341;83;21482;-65
2022/02/08 06:45:15;;;;;;;3.12;1.00;;;;;;;2.01;76.50;99797.89;1672499;84;21142;-66
2022/02/08 06:47:46;;;;;;;1.70;1.23;;;;;;;2.03;76.50;99801.69;1667348;84;21513;-64
2022/02/08 06:50:12;;;;;;;1.23;1.00;;;;;;;2.02;76.52;99806.12;1661022;84;21071;-67
2022/02/08 06:52:39;;;;;;;2.25;1.20;;;;;;;2.04;76.43;99812.55;1670848;84;21044;-66
2022/02/08 06:55:08;;;;;;;1.40;0.83;;;;;;;2.11;76.19;99818.40;1664405;83;21525;-65
2022/02/08 06:57:49;;;;;;;1.77;1.40;;;;;;;2.18;75.90;99821.75;1598555;87;21054;-66
2022/02/08 07:00:11;;;;;;;1.63;0.90;;;;;;;2.17;75.70;99827.97;1657142;84;21522;-65
2022/02/08 07:02:36;;;;;;;1.23;1.00;;;;;;;2.12;76.05;99836.30;1687360;83;21037;-74
2022/02/08 07:05:02;;;;;;;2.72;1.75;;;;;;;2.09;76.11;99840.06;1692208;83;21001;-65
2022/02/08 07:07:28;;;;;;;1.70;0.98;;;;;;;2.08;75.67;99838.39;1699460;83;21023;-64
2022/02/08 07:09:55;;;;;;;1.90;1.25;;;;;;;2.11;75.77;99843.84;1698620;83;22313;-69
2022/02/08 07:12:21;;;;;;;;;;;;;;;2.19;75.58;99834.75;1671077;83;21094;-69
2022/02/08 07:14:47;;;;;;;4.07;1.47;;;;;;;2.26;75.52;99841.09;1661141;84;20208;-68
2022/02/08 07:17:13;;;;;;;1.70;1.32;;;;;;;2.29;75.39;99844.72;1656292;84;21118;-67
2022/02/08 07:19:39;;;;;;;5.70;1.92;;;;;;;2.32;75.32;99843.13;1662309;84;21081;-70
2022/02/08 07:22:05;;;;;;;3.60;1.98;;;;;;;2.33;74.64;99843.94;1662050;84;22451;-69
2022/02/08 07:24:32;;;;;;;5.57;3.73;;;;;;;2.35;74.75;99847.25;1668087;84;21068;-66
2022/02/08 07:26:59;;;;;;;5.33;2.80;;;;;;;2.39;74.78;99857.81;1659801;84;21045;-68
2022/02/08 07:29:32;;;;;;;2.33;1.73;;;;;;;2.38;74.60;99860.12;1669963;84;21143;-68
2022/02/08 07:32:01;;;;;;;2.93;1.80;;;;;;;2.44;74.51;99863.47;1667669;84;21106;-71
2022/02/08 07:34:43;;;;;;;2.33;1.60;;;;;;;2.53;74.21;99881.00;1688561;82;20998;-69
2022/02/08 07:37:18;;;;;;;3.13;2.23;;;;;;;2.60;73.92;99873.36;1686449;82;21071;-70
2022/02/08 07:39:41;;;;;;;4.57;2.07;;;;;;;2.55;73.37;99882.67;1700018;82;21456;-72
2022/02/08 07:42:07;;;;;;;2.63;1.30;;;;;;;2.48;73.42;99899.02;1708111;82;21360;-67
2022/02/08 07:44:33;;;;;;;4.60;1.87;;;;;;;2.48;73.46;99896.39;1703759;82;21030;-70
2022/02/08 07:47:07;;;;;;;2.30;1.10;;;;;;;2.50;73.46;99896.25;1675081;84;21082;-68
2022/02/08 07:49:37;;;;;;;4.40;2.07;;;;;;;2.57;73.11;99907.03;1686911;82;21536;-69
2022/02/08 07:52:03;;;;;;;4.07;1.73;;;;;;;2.70;72.71;99908.32;1706183;82;21058;-68
2022/02/08 07:54:29;;;;;;;2.83;1.90;;;;;;;2.78;72.37;99913.34;1706027;82;21042;-71
2022/02/08 07:56:56;;;;;;;1.42;1.30;;;;;;;2.77;71.76;99919.56;1700604;82;21022;-70
2022/02/08 07:59:22;;;;;;;1.85;1.42;;;;;;;2.69;71.04;99920.31;1697264;82;20987;-69
2022/02/08 08:01:49;;;;;;;2.60;1.30;;;;;;;2.67;71.15;99927.52;1696669;83;21021;-70
2022/02/08 08:04:17;;;;;;;2.70;1.50;;;;;;;2.68;71.22;99931.33;1684070;83;21034;-69
2022/02/08 08:06:43;;;;;;;3.13;1.90;;;;;;;2.69;70.78;99932.15;1690809;83;21079;-70
2022/02/08 08:09:09;;;;;;;2.85;1.70;;;;;;;2.74;70.82;99944.39;1689253;83;20958;-69
2022/02/08 08:11:37;;;;;;;3.70;2.40;;;;;;;2.73;70.25;99933.51;1691547;82;21006;-72
2022/02/08 08:14:07;;;;;;;3.07;1.60;;;;;;;2.73;70.05;99945.35;1666693;84;21011;-68
2022/02/08 08:21:40;;;;;;;4.13;1.83;;;;;;;2.83;69.77;99963.75;1701703;82;21471;-70
2022/02/08 08:24:08;;;;;;;7.10;3.27;;;;;;;2.85;69.81;99970.51;1707151;82;21329;-73
2022/02/08 08:26:36;;;;;;;4.17;2.80;;;;;;;2.86;69.33;99966.06;1700718;82;21062;-69
2022/02/08 08:29:03;;;;;;;3.33;1.90;;;;;;;2.88;68.84;99983.39;1705349;82;21066;-68
2022/02/08 08:31:31;;;;;;;5.08;2.22;;;;;;;2.89;68.71;99981.58;1701089;82;21118;-74
2022/02/08 08:33:57;;;;;;;2.63;1.37;;;;;;;2.89;68.33;99978.45;1696762;82;21088;-71
2022/02/08 08:36:24;;;;;;;2.83;0.93;;;;;;;2.89;67.78;99986.34;1708959;82;20983;-69
2022/02/08 08:38:54;;;;;;;3.17;1.30;;;;;;;2.84;67.40;99984.63;1704635;82;21050;-68
2022/02/08 08:49:22;;;;;;;2.57;0.80;;;;;;;2.80;67.18;100008.78;1707194;82;21018;-71
2022/02/08 08:53:59;;;;;;;3.40;0.78;;;;;;;2.84;66.80;100001.74;1719944;82;21010;-69
2022/02/08 08:56:25;;;;;;;2.52;0.68;;;;;;;2.88;66.25;100002.28;1697098;82;21131;-69
2022/02/08 08:58:51;;;;;;;2.85;0.80;;;;;;;2.89;65.55;100008.72;1697813;82;21090;-68
2022/02/08 09:01:17;;;;;;;1.02;0.53;;;;;;;2.89;66.10;100005.27;1702531;82;21093;-72
2022/02/08 09:03:45;;;;;;;2.02;0.88;;;;;;;2.93;65.60;100015.84;1707004;82;21402;-73
2022/02/08 09:06:11;;;;;;;1.93;0.90;;;;;;;2.93;65.63;100015.34;1705079;82;21054;-79
2022/02/08 09:08:41;;;;;;;2.70;1.35;;;;;;;2.97;65.38;100014.56;1711450;82;21080;-70
2022/02/08 09:13:58;;;;;;;3.37;1.23;;;;;;;3.03;65.57;100017.09;1676571;82;21008;-69
2022/02/08 09:21:33;;;;;;;4.03;0.98;;;;;;;3.16;62.72;100025.97;1710499;82;20971;-68
2022/02/08 09:29:04;;;;;;;3.93;1.23;;;;;;;3.22;61.81;100034.13;1701792;82;21006;-71
2022/02/08 09:31:27;;;;;;;1.27;0.50;;;;;;;3.22;59.96;100032.81;1666491;84;21130;-70
2022/02/08 09:33:54;;;;;;;1.03;0.53;;;;;;;3.21;59.48;100027.68;1658495;84;21560;-73
2022/02/08 09:36:24;;;;;;;1.92;0.98;;;;;;;3.20;59.59;100028.64;1713190;82;21176;-72
2022/02/08 09:38:48;;;;;;;1.13;0.50;;;;;;;3.15;58.85;100034.86;1710173;82;21062;-70
2022/02/08 09:41:15;;;;;;;1.32;0.30;;;;;;;3.11;58.27;100035.15;1712972;82;21128;-70
2022/02/08 09:43:43;;;;;;;1.72;0.57;;;;;;;3.09;58.56;100037.10;1700855;82;21502;-69
2022/02/08 09:46:10;;;;;;;1.80;0.60;;;;;;;3.08;58.54;100039.38;1689129;83;21037;-68
2022/02/08 09:48:43;;;;;;;0.50;0.30;;;;;;;3.08;58.98;100039.88;1703857;82;21030;-76
2022/02/08 09:51:11;;;;;;;2.93;0.50;;;;;;;3.11;59.00;100038.28;1707665;82;21056;-70
2022/02/08 09:53:42;;;;;;;1.10;0.47;;;;;;;3.14;58.48;100038.46;1695072;82;21034;-73
2022/02/08 09:56:12;;;;;;;0.80;0.40;;;;;;;3.13;58.52;100029.73;1707401;82;21143;-70
2022/02/08 09:58:40;;;;;;;0.60;0.30;;;;;;;3.14;58.40;100039.78;1701610;82;20990;-73
2022/02/08 10:01:11;;;;;;;0.90;0.30;;;;;;;3.16;57.89;100043.91;1705778;82;21033;-72
2022/02/08 10:03:59;;;;;;;1.03;0.10;;;;;;;3.14;57.73;100034.02;1648170;86;21677;-72
2022/02/08 10:06:29;;;;;;;0.70;0.20;;;;;;;3.14;57.76;100030.56;1699534;82;21137;-72
2022/02/08 10:09:05;;;;;;;2.27;0.40;;;;;;;3.09;58.06;100027.89;1669919;84;21582;-72
2022/02/08 10:14:26;;;;;;;1.97;0.87;;;;;;;3.02;58.02;100033.89;1707858;82;21047;-70
2022/02/08 10:21:01;;;;;;;4.17;0.60;;;;;;;3.04;57.61;100034.57;1709976;82;21288;-70
2022/02/08 10:22:36;;;;;;;1.67;0.70;;;;;;;2.78;58.00;99988.36;1706601;82;21077;-71
2022/02/08 10:25:11;;;;;;;1.33;0.40;;;;;;;2.91;57.80;100033.09;1701271;82;21044;-71
2022/02/08 10:27:41;;;;;;;1.50;0.40;;;;;;;2.90;57.83;100027.97;1699743;82;21118;-72
2022/02/08 10:30:58;;;;;;;0.40;0.27;;;;;;;2.83;57.68;100026.92;1696042;82;21093;-73
2022/02/08 10:38:45;;;;;;;1.90;0.40;;;;;;;2.84;58.31;100029.38;1652483;85;21509;-71
2022/02/08 10:41:21;;;;;;;1.87;0.30;;;;;;;2.85;58.09;100028.42;1667891;84;21648;-70
2022/02/08 10:44:05;;;;;;;1.97;0.23;;;;;;;2.92;57.72;100030.81;1711974;82;21054;-71
2022/02/08 10:46:34;;;;;;;1.50;0.30;;;;;;;2.96;57.15;100024.77;1695004;82;21070;-70
2022/02/08 10:49:08;;;;;;;2.00;0.20;;;;;;;2.99;57.04;100023.64;1704270;82;21057;-73
2022/02/08 10:51:48;;;;;;;0.40;0.20;;;;;;;3.01;56.86;100020.37;1699429;82;21093;-72
2022/02/08 10:54:23;;;;;;;0.93;0.20;;;;;;;3.00;56.89;100016.91;1708581;82;21098;-81
2022/02/08 10:56:54;;;;;;;0.50;0.40;;;;;;;3.00;57.05;100018.23;1713157;82;21026;-76
2022/02/08 11:01:56;;;;;;;1.70;0.30;;;;;;;3.04;56.23;100032.75;1711272;82;21522;-71
2022/02/08 11:04:22;;;;;;;0.87;0.20;;;;;;;3.05;56.32;100034.43;1708553;82;21129;-71
2022/02/08 11:06:56;;;;;;;0.37;0.20;;;;;;;3.07;55.95;100036.89;1711171;82;21129;-69
2022/02/08 11:09:36;;;;;;;0.43;0.40;;;;;;;3.11;56.26;100034.33;1714036;82;21541;-70
2022/02/08 11:14:39;;;;;;;0.60;0.20;;;;;;;3.10;55.07;100031.34;1718639;82;21031;-71
2022/02/08 11:25:16;;;;;;;1.73;0.77;;;;;;;2.99;54.74;100036.31;1702982;82;21600;-70
2022/02/08 11:27:46;;;;;;;0.47;0.20;;;;;;;2.95;54.86;100019.65;1697658;82;21563;-70
2022/02/08 11:30:15;;;;;;;0.70;0.30;;;;;;;2.95;54.86;100035.45;1717240;82;21552;-72
2022/02/08 11:49:29;;;;;;;2.57;0.30;;;;;;;2.90;55.34;100038.03;1696140;82;21110;-70
2022/02/08 11:51:40;;;;;;;1.20;0.40;;;;;;;2.91;55.46;100038.86;1698070;82;21014;-70
2022/02/08 11:54:55;;;;;;;0.80;0.30;;;;;;;2.92;55.57;100041.84;1651917;84;21055;-71
2022/02/08 11:59:36;;;;;;;2.10;0.70;;;;;;;3.01;56.18;100046.20;1698532;82;21046;-71
2022/02/08 12:32:27;;;;;;;1.40;0.30;;;;;;;3.16;54.64;100065.48;1700513;82;21038;-77
2022/02/08 12:56:11;;;;;;;2.83;0.30;;;;;;;3.27;54.25;100091.13;1787983;78;22453;-74
2022/02/08 13:01:39;;;;;;;2.73;0.40;;;;;;;3.11;53.82;100097.53;1700877;81;21061;-71
2022/02/08 13:04:02;;;;;;;1.20;0.40;;;;;;;3.05;54.16;100092.83;1691255;83;21036;-74
2022/02/08 14:06:15;;;;;;;1.02;0.25;;;;;;;3.00;52.86;100102.49;1710474;82;22152;-72
2022/02/08 14:14:42;;;;;;;2.13;0.57;;;;;;;2.92;52.84;100110.30;1709248;82;21088;-75
2022/02/08 14:24:15;;;;;;;1.03;0.77;;;;;;;2.83;53.55;100123.00;1708936;82;21013;-74
2022/02/08 15:09:32;;;;;;;4.57;0.77;;;;;;;2.79;54.30;100128.19;1713839;82;21042;-76
2022/02/08 15:12:11;;;;;;;4.43;0.70;;;;;;;2.79;54.60;100128.19;1706150;82;21089;-73
2022/02/08 15:14:39;;;;;;;3.03;1.00;;;;;;;2.77;54.28;100128.35;1708781;82;21673;-76
2022/02/08 15:17:02;;;;;;;1.30;0.73;;;;;;;2.77;54.15;100135.39;1714580;82;21062;-74
2022/02/08 15:19:28;;;;;;;1.93;1.20;;;;;;;2.74;54.64;100131.26;1713924;82;21077;-73
2022/02/08 15:21:55;;;;;;;2.65;1.10;;;;;;;2.73;54.81;100129.13;1702791;82;21098;-74
2022/02/08 15:24:21;;;;;;;1.77;0.80;;;;;;;2.72;54.70;100134.52;1713000;83;21184;-74
2022/02/08 15:26:52;;;;;;;3.90;1.57;;;;;;;2.75;54.47;100132.08;1706802;82;21031;-75
2022/02/08 15:29:16;;;;;;;2.40;1.20;;;;;;;2.76;54.46;100137.20;1695124;82;21107;-73
2022/02/08 15:31:42;;;;;;;3.27;1.33;;;;;;;2.75;54.70;100137.34;1709413;83;21031;-74
2022/02/08 15:34:08;;;;;;;3.45;1.35;;;;;;;2.77;54.39;100134.08;1646279;85;21081;-73
2022/02/08 15:36:35;;;;;;;2.67;1.20;;;;;;;2.72;54.46;100145.87;1647013;85;21030;-74
2022/02/08 15:39:07;;;;;;;2.45;1.87;;;;;;;2.72;54.66;100139.78;1676673;83;21086;-74
2022/02/08 15:41:33;;;;;;;3.97;2.00;;;;;;;2.70;54.66;100140.42;1685290;83;21062;-73
2022/02/08 15:43:58;;;;;;;3.07;1.10;;;;;;;2.70;54.73;100134.66;1679304;83;21105;-75
2022/02/08 15:46:26;;;;;;;2.33;1.37;;;;;;;2.69;54.54;100138.74;1689553;83;21048;-74
2022/02/08 15:48:54;;;;;;;2.00;0.57;;;;;;;2.64;54.88;100133.09;1680286;83;21527;-73
2022/02/08 15:51:36;;;;;;;2.53;1.60;;;;;;;2.65;54.60;100134.74;1682247;83;21675;-73
2022/02/08 15:56:54;;;;;;;2.57;0.90;;;;;;;2.62;54.61;100141.59;1703480;82;21014;-75
2022/02/08 16:07:08;;;;;;;4.17;1.27;;;;;;;2.65;54.81;100142.14;1675623;84;21596;-77
2022/02/08 16:17:26;;;;;;;5.43;2.50;;;;;;;2.64;55.07;100142.31;1640702;85;21655;-77
2022/02/08 16:25:13;;;;;;;6.50;2.67;;;;;;;2.58;55.42;100133.64;1668021;84;21587;-81
2022/02/08 16:27:48;;;;;;;5.27;2.90;;;;;;;2.58;55.65;100132.33;1673711;84;21564;-78
2022/02/08 16:49:26;;;;;;;8.23;4.97;;;;;;;2.53;56.41;100133.59;1654093;85;21177;-81
2022/02/08 16:54:22;;;;;;;9.77;5.47;;;;;;;2.53;56.52;100138.03;1667138;85;21547;-82
2022/02/08 16:59:08;;;;;;;14.87;6.03;;;;;;;2.51;56.66;100143.42;1692572;83;21526;-83
2022/02/08 17:01:36;;;;;;;11.60;6.10;;;;;;;2.54;56.86;100151.51;1718574;81;21640;-82
2022/02/08 17:04:05;;;;;;;14.80;7.70;;;;;;;2.53;56.88;100149.87;1716808;83;21763;-78
2022/02/08 17:06:30;;;;;;;15.13;9.40;;;;;;;2.55;57.03;100143.16;1730470;82;22621;-82
2022/02/08 17:09:06;;;;;;;14.00;8.83;;;;;;;2.51;56.88;100147.86;1726192;83;21045;-83
2022/02/08 17:11:38;;;;;;;20.77;11.63;;;;;;;2.51;56.88;100145.23;1714714;83;21562;-82
2022/02/08 17:16:34;;;;;;;18.43;10.67;;;;;;;2.55;57.06;100157.13;1654215;84;21007;-79
2022/02/08 17:19:27;;;;;;;18.00;10.13;;;;;;;2.56;57.09;100154.83;1674676;84;21553;-78
2022/02/08 17:45:11;;;;;;;14.13;9.83;;;;;;;2.35;57.62;100155.00;1650767;84;21023;-76
2022/02/08 17:46:09;;;;;;;18.53;13.30;;;;;;;2.33;57.84;100151.19;1678755;83;21000;-79
2022/02/08 17:48:31;;;;;;;19.37;14.47;;;;;;;2.33;58.07;100145.92;1688340;83;20996;-80
2022/02/08 17:50:56;;;;;;;20.67;13.30;;;;;;;2.36;58.09;100155.36;1669145;83;20984;-79
2022/02/08 17:53:23;;;;;;;21.62;12.35;;;;;;;2.40;58.10;100157.22;1671790;84;21124;-74
2022/02/08 17:55:50;;;;;;;18.70;11.17;;;;;;;2.45;58.09;100151.89;1682799;83;21067;-74
2022/02/08 17:58:16;;;;;;;18.62;12.35;;;;;;;2.46;58.41;100156.16;1683923;84;20971;-73
2022/02/08 18:00:43;;;;;;;17.10;11.90;;;;;;;2.46;58.38;100153.53;1672912;83;21147;-75
2022/02/08 18:03:12;;;;;;;;;;;;;;;2.47;58.54;100150.44;1684711;84;21050;-73
2022/02/08 18:05:40;;;;;;;17.70;10.13;;;;;;;2.47;58.59;100151.75;1676279;84;20196;-77
2022/02/08 18:08:07;;;;;;;15.63;10.53;;;;;;;2.41;58.65;100151.83;1696955;83;21104;-73
2022/02/08 18:10:36;;;;;;;13.57;10.53;;;;;;;2.43;58.68;100153.83;1671988;84;21070;-76
2022/02/08 18:13:08;;;;;;;16.47;11.20;;;;;;;2.44;58.67;100142.32;1685589;84;21299;-77
2022/02/08 18:15:33;;;;;;;14.20;9.03;;;;;;;2.46;58.78;100140.88;1691425;84;21636;-75
2022/02/08 18:18:06;;;;;;;12.20;8.83;;;;;;;2.52;58.85;100137.20;1683857;84;21566;-77